Home > Products > Valid Products > TAF

000
FTUS44 KLIX 020324 AAA
TAFMCB
TAF AMD
KMCB 020324Z 0203/0224 VRB03KT 4SM BR SCT250
      TEMPO 0203/0207 3/4SM BR
     FM020700 00000KT 2SM BR SCT003
      TEMPO 0209/0212 1/2SM FG VV003
     FM021300 23005KT P6SM SCT025
     FM021700 22010KT P6SM SCT035=



000
FTUS44 KLIX 012337
TAFBTR
TAF
KBTR 012337Z 0200/0224 VRB04KT P6SM SCT025 BKN110
      TEMPO 0200/0202 BKN025
     FM020800 VRB03KT P6SM SCT005
      TEMPO 0209/0212 5SM BR BKN005
     FM021300 22005KT P6SM SCT025
     FM021700 21011KT P6SM SCT035=



000
FTUS44 KLIX 012337
TAFGPT
TAF
KGPT 012337Z 0200/0224 VRB05KT P6SM SCT025 BKN080
     FM020200 25005KT P6SM SCT060 SCT110 BKN250
     FM021300 22007KT P6SM SCT025
     FM021700 21009KT P6SM SCT035=



000
FTUS44 KLIX 012337
TAFMCB
TAF
KMCB 012337Z 0200/0224 VRB04KT P6SM SCT020 SCT110 BKN250
     FM020800 VRB03KT 4SM BR SCT003
      TEMPO 0209/0212 2SM BR BKN003
     FM021300 23005KT P6SM SCT025
     FM021700 22010KT P6SM SCT035=



000
FTUS44 KLIX 012337
TAFNEW
TAF
KNEW 012337Z 0200/0224 33010KT 5SM -SHRA BKN020 OVC050
      TEMPO 0200/0202 3SM -TSRA BKN025CB
     FM020200 VRB05KT P6SM SCT020 SCT110 BKN250
     FM021300 23007KT P6SM SCT025
     FM021700 23010KT P6SM SCT035=



000
FTUS44 KLIX 012337
TAFNEW
TAF
KNEW 012337Z 0200/0224 33010KT 5SM -SHRA BKN020 OVC050
      TEMPO 0200/0202 3SM -TSRA BKN025CB
     FM020200 VRB05KT P6SM SCT020 SCT110 BKN250
     FM021300 23007KT P6SM SCT025
     FM021700 23010KT P6SM SCT035=



000
FTUS44 KLIX 012337
TAFNEW
TAF
KNEW 012337Z 0200/0224 33010KT 5SM -SHRA BKN020 OVC050
      TEMPO 0200/0202 3SM -TSRA BKN025CB
     FM020200 VRB05KT P6SM SCT020 SCT110 BKN250
     FM021300 23007KT P6SM SCT025
     FM021700 23010KT P6SM SCT035=



000
FTUS44 KLIX 012337
TAFMSY
TAF
KMSY 012337Z 0200/0224 33009KT 5SM -SHRA BKN025 OVC050
      TEMPO 0200/0202 3SM -TSRA BKN025CB
     FM020200 VRB05KT P6SM SCT020 SCT110 BKN250
     FM021300 22007KT P6SM SCT025
     FM021700 22010KT P6SM SCT035=



000
FTUS44 KLIX 012103 AAA
TAFMCB
TAF AMD
KMCB 012103Z 0121/0218 24008KT P6SM SCT030 BKN040
      TEMPO 0121/0123 VRB25KT 1SM TSRA BKN025CB
     FM020000 24008KT P6SM SCT250
     FM020200 22004KT P6SM SCT250
     FM021500 23009KT P6SM SCT035=



000
FTUS44 KLIX 012054 AAA
TAFMSY
TAF AMD
KMSY 012054Z 0121/0218 19010KT P6SM SCT027 BKN050
      TEMPO 0121/0123 VRB20G30KT 1SM TSRA BKN025CB
     FM012300 24009KT P6SM SCT050 BKN150=



000
FTUS44 KLIX 011959 AAA
TAFGPT
TAF AMD
KGPT 011959Z 0120/0218 19010G19KT P6SM SCT024
      TEMPO 0120/0122 VRB32KT 2SM TSRA BKN025CB
     FM020100 25005KT P6SM SCT250
     FM021600 24010KT P6SM SCT035=



000
FTUS44 KLIX 011945 AAA
TAFBTR
TAF AMD
KBTR 011945Z 0120/0218 16015G23KT P6SM -TSRA BKN035CB
     FM012100 18008KT P6SM -RA SCT040 BKN100
     FM020000 23006KT P6SM BKN250
     FM021700 22010KT P6SM SCT035=



000
FTUS44 KLIX 011917 AAA
TAFNEW
TAF AMD
KNEW 011917Z 0119/0218 29025G38KT 2SM TSRA FEW025 BKN045CB OVC100
     FM012000 25011KT P6SM SCT035 BKN150
     FM020000 24006KT P6SM SCT250=



000
FTUS44 KLIX 011917 AAA
TAFNEW
TAF AMD
KNEW 011917Z 0119/0218 29025G38KT 2SM TSRA FEW025 BKN045CB OVC100
     FM012000 25011KT P6SM SCT035 BKN150
     FM020000 24006KT P6SM SCT250=



000
FTUS44 KLIX 011729
TAFBTR
TAF
KBTR 011729Z 0118/0218 22010KT P6SM FEW028 SCT035 BKN060
      TEMPO 0118/0120 22018G30KT 2SM TSRA BKN025CB
     FM020000 23006KT P6SM BKN250
     FM021700 22010KT P6SM SCT035=



000
FTUS44 KLIX 011729
TAFMCB
TAF
KMCB 011729Z 0118/0218 24010KT P6SM FEW027 SCT035
      TEMPO 0119/0121 VRB25KT 2SM TSRA BKN025CB
     FM020000 24008KT P6SM SCT250
     FM020200 22004KT P6SM SCT250
     FM021500 23009KT P6SM SCT035=



000
FTUS44 KLIX 011729
TAFNEW
TAF
KNEW 011729Z 0118/0218 00000KT P6SM VCSH FEW035
     FM012000 25011KT P6SM SCT035
      TEMPO 0120/0122 VRB30KT 2SM TSRA BKN025CB
     FM020000 24006KT P6SM SCT250=



000
FTUS44 KLIX 011729
TAFMSY
TAF
KMSY 011729Z 0118/0218 19010KT P6SM FEW030 BKN150 BKN250
      TEMPO 0118/0121 VRB20G30KT 1/2SM +TSRA BKN025CB
     FM012100 24009KT P6SM BKN150
     FM012300 24005KT P6SM SCT250
     FM020000 22006KT P6SM SCT035=



000
FTUS44 KLIX 011729
TAFNEW
TAF
KNEW 011729Z 0118/0218 00000KT P6SM VCSH FEW035
     FM012000 25011KT P6SM SCT035
      TEMPO 0120/0122 VRB30KT 2SM TSRA BKN025CB
     FM020000 24006KT P6SM SCT250=



000
FTUS44 KLIX 011729
TAFGPT
TAF
KGPT 011729Z 0118/0218 22007KT P6SM FEW035
     FM012200 24011KT P6SM SCT040
      TEMPO 0122/0124 VRB25KT 2SM TSRA BKN025CB
     FM020100 25005KT P6SM SCT250
     FM021600 24010KT P6SM SCT035=



000
FTUS44 KLIX 011200 AAA
TAFMCB
TAF AMD
KMCB 011200Z 0112/0212 VRB03KT 6SM BR SKC
      TEMPO 0119/0122 VRB15G25KT 2SM TSRA BKN020CB OVC120
     FM020100 VRB03KT P6SM BKN080 OVC120
     FM021000 VRB03KT 3SM BR BKN003=



000
FTUS44 KLIX 011124
TAFMSY
TAF
KMSY 011124Z 0112/0212 27004KT P6SM BKN160 BKN250
      TEMPO 0119/0122 VRB18G28KT 2SM TSRA BKN020CB OVC120
     FM020100 VRB03KT P6SM SCT080 OVC120=



000
FTUS44 KLIX 011124
TAFMSY
TAF
KMSY 011124Z 0112/0212 27004KT P6SM BKN160 BKN250
      TEMPO 0119/0122 VRB18G28KT 2SM TSRA BKN020CB OVC120
     FM020100 VRB03KT P6SM SCT080 OVC120=



000
FTUS44 KLIX 011124
TAFNEW
TAF
KNEW 011124Z 0112/0212 22006KT P6SM SKC
      TEMPO 0118/0122 VRB15G25KT 2SM TSRA BKN020CB OVC120
     FM020100 23006KT P6SM BKN080 OVC120=



000
FTUS44 KLIX 011124
TAFMCB
TAF
KMCB 011124Z 0112/0212 00000KT 3/4SM BR VV004
     FM011300 21004KT P6SM BKN120
      TEMPO 0119/0122 VRB15G25KT 2SM TSRA BKN020CB OVC120
     FM020100 VRB03KT P6SM BKN080 OVC120
     FM021000 VRB03KT 3SM BR BKN003=



000
FTUS44 KLIX 011124
TAFBTR
TAF
KBTR 011124Z 0112/0212 00000KT 6SM BR SKC
     FM011400 23006KT P6SM SCT030 BKN150
      TEMPO 0119/0122 VRB15G25KT 2SM TSRA BKN020CB OVC120
     FM020200 VRB03KT P6SM BKN120
     FM021000 VRB03KT 5SM BR BKN005=



000
FTUS44 KLIX 011124
TAFGPT
TAF
KGPT 011124Z 0112/0212 00000KT P6SM SKC
      TEMPO 0119/0121 VRB15G25KT 2SM TSRA BKN020CB OVC120
     FM020100 VRB03KT P6SM BKN080 OVC120=



000
FTUS44 KLIX 011124
TAFBTR
TAF
KBTR 011124Z 0112/0212 00000KT 6SM BR SKC
     FM011400 23006KT P6SM SCT030 BKN150
      TEMPO 0119/0122 VRB15G25KT 2SM TSRA BKN020CB OVC120
     FM020200 VRB03KT P6SM BKN120
     FM021000 VRB03KT 5SM BR BKN005=



000
FTUS44 KLIX 011124
TAFMCB
TAF
KMCB 011124Z 0112/0212 00000KT 3/4SM BR VV004
     FM011300 21004KT P6SM BKN120
      TEMPO 0119/0122 VRB15G25KT 2SM TSRA BKN020CB OVC120
     FM020100 VRB03KT P6SM BKN080 OVC120
     FM021000 VRB03KT 3SM BR BKN003=



000
FTUS44 KLIX 011124
TAFNEW
TAF
KNEW 011124Z 0112/0212 22006KT P6SM SKC
      TEMPO 0118/0122 VRB15G25KT 2SM TSRA BKN020CB OVC120
     FM020100 23006KT P6SM BKN080 OVC120=



000
FTUS44 KLIX 011124
TAFNEW
TAF
KNEW 011124Z 0112/0212 22006KT P6SM SKC
      TEMPO 0118/0122 VRB15G25KT 2SM TSRA BKN020CB OVC120
     FM020100 23006KT P6SM BKN080 OVC120=



000
FTUS44 KLIX 011124
TAFGPT
TAF
KGPT 011124Z 0112/0212 00000KT P6SM SKC
      TEMPO 0119/0121 VRB15G25KT 2SM TSRA BKN020CB OVC120
     FM020100 VRB03KT P6SM BKN080 OVC120=



000
FTUS44 KLIX 011124
TAFNEW
TAF
KNEW 011124Z 0112/0212 22006KT P6SM SKC
      TEMPO 0118/0122 VRB15G25KT 2SM TSRA BKN020CB OVC120
     FM020100 23006KT P6SM BKN080 OVC120=



000
FTUS44 KLIX 011015 AAA
TAFMCB
TAF AMD
KMCB 011015Z 0110/0206 20004KT 6SM BR OVC002
      TEMPO 0110/0113 1SM BR OVC001
     FM011300 21004KT P6SM BKN120
     FM011900 23009KT P6SM VCTS BKN020CB OVC120
     FM020100 VRB03KT P6SM BKN080 OVC120=



000
FTUS44 KLIX 011013 AAA
TAFBTR
TAF AMD
KBTR 011013Z 0110/0206 00000KT 1SM BR BKN004
      TEMPO 0110/0113 3SM BR BKN008
     FM011300 23006KT P6SM SCT030 BKN150
     FM012200 23008KT P6SM BKN120
     FM020200 VRB03KT P6SM BKN120=



000
FTUS44 KLIX 010520
TAFNEW
TAF
KNEW 010520Z 0106/0206 26015KT P6SM SKC
     FM010800 22006KT P6SM SCT005 BKN150
     FM011700 23009KT P6SM VCTS BKN020CB OVC120
     FM020100 VRB03KT P6SM BKN080 OVC120=



000
FTUS44 KLIX 010520
TAFGPT
TAF
KGPT 010520Z 0106/0206 00000KT P6SM SKC
     FM011600 23009KT P6SM VCTS BKN020CB OVC120
     FM020100 VRB03KT P6SM BKN080 OVC120=



000
FTUS44 KLIX 010520
TAFNEW
TAF
KNEW 010520Z 0106/0206 26015KT P6SM SKC
     FM010800 22006KT P6SM SCT005 BKN150
     FM011700 23009KT P6SM VCTS BKN020CB OVC120
     FM020100 VRB03KT P6SM BKN080 OVC120=



000
FTUS44 KLIX 010520
TAFMSY
TAF
KMSY 010520Z 0106/0206 25008KT P6SM SCT020 BKN170 OVC250
     FM011600 23009KT P6SM VCTS BKN020CB OVC120
     FM020100 VRB03KT P6SM BKN080 OVC120=



000
FTUS44 KLIX 010520
TAFNEW
TAF
KNEW 010520Z 0106/0206 26015KT P6SM SKC
     FM010800 22006KT P6SM SCT005 BKN150
     FM011700 23009KT P6SM VCTS BKN020CB OVC120
     FM020100 VRB03KT P6SM BKN080 OVC120=



000
FTUS44 KLIX 010520
TAFMSY
TAF
KMSY 010520Z 0106/0206 25008KT P6SM SCT020 BKN170 OVC250
     FM011600 23009KT P6SM VCTS BKN020CB OVC120
     FM020100 VRB03KT P6SM BKN080 OVC120=



000
FTUS44 KLIX 010520
TAFMCB
TAF
KMCB 010520Z 0106/0206 25005KT P6SM SKC
     FM011900 23009KT P6SM VCTS BKN020CB OVC120
     FM020100 VRB03KT P6SM BKN080 OVC120=



000
FTUS44 KLIX 010520
TAFBTR
TAF
KBTR 010520Z 0106/0206 22003KT P6SM SKC
     FM010800 VRB03KT P6SM SCT005 BKN150
     FM011300 23006KT P6SM SCT030 BKN150 PROB30 0116/0121 VRB15KT
      2SM TSRA BR BKN030CB
     FM012200 23008KT P6SM BKN120
     FM020200 VRB03KT P6SM BKN120=



000
FTUS44 KLIX 010520
TAFMCB
TAF
KMCB 010520Z 0106/0206 25005KT P6SM SKC
     FM011900 23009KT P6SM VCTS BKN020CB OVC120
     FM020100 VRB03KT P6SM BKN080 OVC120=



000
FTUS44 KLIX 010520
TAFBTR
TAF
KBTR 010520Z 0106/0206 22003KT P6SM SKC
     FM010800 VRB03KT P6SM SCT005 BKN150
     FM011300 23006KT P6SM SCT030 BKN150 PROB30 0116/0121 VRB15KT
      2SM TSRA BR BKN030CB
     FM012200 23008KT P6SM BKN120
     FM020200 VRB03KT P6SM BKN120=



000
FTUS44 KLIX 010520
TAFGPT
TAF
KGPT 010520Z 0106/0206 00000KT P6SM SKC
     FM011600 23009KT P6SM VCTS BKN020CB OVC120
     FM020100 VRB03KT P6SM BKN080 OVC120=



000
FTUS44 KLIX 010520
TAFNEW
TAF
KNEW 010520Z 0106/0206 26015KT P6SM SKC
     FM010800 22006KT P6SM SCT005 BKN150
     FM011700 23009KT P6SM VCTS BKN020CB OVC120
     FM020100 VRB03KT P6SM BKN080 OVC120=



000
FTUS44 KLIX 010213 AAA
TAFNEW
TAF AMD
KNEW 010213Z 0102/0124 26008KT P6SM SCT035 BKN150
     FM010800 22006KT P6SM SCT005 BKN150=



000
FTUS44 KLIX 010213 AAA
TAFNEW
TAF AMD
KNEW 010213Z 0102/0124 26008KT P6SM SCT035 BKN150
     FM010800 22006KT P6SM SCT005 BKN150=



000
FTUS44 KLIX 010213 AAA
TAFNEW
TAF AMD
KNEW 010213Z 0102/0124 26008KT P6SM SCT035 BKN150
     FM010800 22006KT P6SM SCT005 BKN150=



000
FTUS44 KLIX 010213 AAA
TAFNEW
TAF AMD
KNEW 010213Z 0102/0124 26008KT P6SM SCT035 BKN150
     FM010800 22006KT P6SM SCT005 BKN150=



000
FTUS44 KLIX 010212 AAA
TAFMSY
TAF AMD
KMSY 010212Z 0102/0124 26008KT P6SM SCT060 BKN150
     FM010800 VRB03KT P6SM SCT005 BKN150=



000
FTUS44 KLIX 302335
TAFNEW
TAF
KNEW 302335Z 0100/0124 25011G21KT P6SM SCT035 SCT250
     FM010300 23012KT P6SM SCT060 SCT250
     FM010800 22006KT P6SM SCT005 BKN150=



000
FTUS44 KLIX 302335
TAFMCB
TAF
KMCB 302335Z 0100/0124 VRB06KT P6SM SCT050 SCT200
     FM010800 VRB03KT P6SM SCT005 BKN150=



000
FTUS44 KLIX 302335
TAFNEW
TAF
KNEW 302335Z 0100/0124 25011G21KT P6SM SCT035 SCT250
     FM010300 23012KT P6SM SCT060 SCT250
     FM010800 22006KT P6SM SCT005 BKN150=



000
FTUS44 KLIX 302335
TAFGPT
TAF
KGPT 302335Z 0100/0124 VRB06KT P6SM VCSH FEW030 SCT060 SCT250
     FM010300 23007KT P6SM SCT040 SCT250=



000
FTUS44 KLIX 302335
TAFMSY
TAF
KMSY 302335Z 0100/0124 23014G22KT P6SM SCT035 SCT180 BKN250
     FM010300 23012KT P6SM SCT060 SCT250
     FM010800 VRB03KT P6SM SCT005 BKN150=



000
FTUS44 KLIX 302335
TAFBTR
TAF
KBTR 302335Z 0100/0124 23008KT P6SM SCT040 BKN200
     FM010800 VRB03KT P6SM SCT005 BKN150
     FM011300 23006KT P6SM SCT030 BKN150 PROB30 0115/0118 VRB15KT
      2SM TSRA BR BKN030CB=



000
FTUS44 KLIX 302017 AAA
TAFBTR
TAF AMD
KBTR 302017Z 3020/0118 25007KT P6SM BKN030
      TEMPO 3020/3024 VRB15KT 1/4SM TSRA FG FEW014 BKN030CB
     FM010100 23008KT P6SM SCT040 BKN200
     FM010800 VRB03KT P6SM SCT005 BKN150
     FM011300 23006KT P6SM SCT030 BKN150 PROB30 0115/0118 VRB15KT
      2SM TSRA BR BKN030CB=



000
FTUS44 KLIX 301740
TAFGPT
TAF
KGPT 301740Z 3018/0118 VRB04KT P6SM FEW030
      TEMPO 3020/3024 VRB15G29KT 1SM TSRA BKN035CB BKN080
     FM010100 VRB06KT P6SM SCT060 SCT250=



000
FTUS44 KLIX 301740
TAFBTR
TAF
KBTR 301740Z 3018/0118 25007KT P6SM BKN030
      TEMPO 3018/3022 VRB15KT 1SM TSRA BKN030CB
     FM010100 23008KT P6SM SCT040 BKN200
     FM010800 VRB03KT P6SM SCT005 BKN150
     FM011300 23006KT P6SM SCT030 BKN150 PROB30 0115/0118 VRB15KT
      2SM TSRA BR BKN030CB=



000
FTUS44 KLIX 301740
TAFMSY
TAF
KMSY 301740Z 3018/0118 23011KT P6SM SCT028 SCT180 BKN250
      TEMPO 3019/3023 VRB15G25KT 1SM TSRA BKN028CB
     FM010100 23012KT P6SM SCT060 SCT250
     FM010800 VRB03KT P6SM SCT005 BKN150=



000
FTUS44 KLIX 301740
TAFNEW
TAF
KNEW 301740Z 3018/0118 25011KT P6SM SCT035
      TEMPO 3019/3023 VRB15G25KT 1SM TSRA BKN028CB
     FM010100 23012KT P6SM SCT060 SCT250
     FM010800 22006KT P6SM SCT005 BKN150=



000
FTUS44 KLIX 301740
TAFMCB
TAF
KMCB 301740Z 3018/0118 27008KT P6SM FEW020 SCT026 SCT035
     FM301900 28011G19KT P6SM BKN040 BKN200
      TEMPO 3019/3023 VRB15G25KT 1SM TSRA BKN030CB
     FM010030 VRB06KT P6SM SCT050 SCT200
     FM010800 VRB03KT P6SM SCT005 BKN150=



000
FTUS44 KLIX 301740
TAFNEW
TAF
KNEW 301740Z 3018/0118 25011KT P6SM SCT035
      TEMPO 3019/3023 VRB15G25KT 1SM TSRA BKN028CB
     FM010100 23012KT P6SM SCT060 SCT250
     FM010800 22006KT P6SM SCT005 BKN150=



000
FTUS44 KLIX 301124
TAFNEW
TAF
KNEW 301124Z 3012/0112 24012KT P6SM FEW060 SCT250
     FM301400 24012G19KT P6SM SCT035 SCT160
     FM301730 24014KT P6SM VCTS SCT050CB SCT120 BKN250
     FM010100 23012KT P6SM SCT060 SCT250=



000
FTUS44 KLIX 301124
TAFBTR
TAF
KBTR 301124Z 3012/0112 27006KT P6SM VCSH FEW025 SCT040 SCT250
     FM301430 25010G18KT P6SM SCT030 SCT150
     FM301700 26011KT P6SM VCTS SCT040CB SCT120 SCT250
     FM010100 23008KT P6SM SCT040 BKN200
     FM010800 VRB03KT P6SM SCT005 BKN150=



000
FTUS44 KLIX 301124
TAFGPT
TAF
KGPT 301124Z 3012/0112 VRB03KT P6SM SCT250
     FM301500 27011KT P6SM BKN120
     FM301900 27011G19KT P6SM VCTS SCT035CB SCT080 SCT150
     FM010100 VRB06KT P6SM SCT060 SCT250=



000
FTUS44 KLIX 301124
TAFMSY
TAF
KMSY 301124Z 3012/0112 24007KT P6SM FEW040 BKN250
     FM301500 24012G19KT P6SM SCT035 SCT160
     FM301800 24014KT P6SM VCTS SCT050CB SCT120 BKN250
     FM010100 23012KT P6SM SCT060 SCT250
     FM010800 VRB03KT P6SM SCT005 BKN150=



000
FTUS44 KLIX 301124
TAFMCB
TAF
KMCB 301124Z 3012/0112 21007KT P6SM SCT040 BKN120 BKN250
     FM301430 27011G19KT P6SM FEW025 SCT150
     FM301900 28011G19KT P6SM VCTS BKN040CB BKN200
     FM010030 VRB06KT P6SM SCT050 SCT200
     FM010800 VRB03KT P6SM SCT005 BKN150=



000
FTUS44 KLIX 301124
TAFNEW
TAF
KNEW 301124Z 3012/0112 24012KT P6SM FEW060 SCT250
     FM301400 24012G19KT P6SM SCT035 SCT160
     FM301730 24014KT P6SM VCTS SCT050CB SCT120 BKN250
     FM010100 23012KT P6SM SCT060 SCT250=



000
FTUS44 KLIX 300532
TAFMCB
TAF
KMCB 300532Z 3006/0106 21007KT P6SM SCT040 BKN120 BKN250
     FM301430 27011G19KT P6SM FEW025 SCT150
     FM301900 28011G19KT P6SM VCTS BKN040CB BKN200
     FM010030 VRB06KT P6SM SCT050 SCT200=



000
FTUS44 KLIX 300532
TAFBTR
TAF
KBTR 300532Z 3006/0106 27006KT P6SM VCSH FEW025 SCT040 SCT250
     FM300700 VRB03KT P6SM FEW040 SCT250
     FM301430 25010G18KT P6SM SCT030 SCT150
     FM301700 26011KT P6SM VCTS SCT040CB SCT120 SCT250
     FM010100 23008KT P6SM SCT040 BKN200=



000
FTUS44 KLIX 300532
TAFGPT
TAF
KGPT 300532Z 3006/0106 VRB03KT P6SM SCT250
     FM301500 27011KT P6SM BKN120
     FM301900 27011G19KT P6SM VCTS SCT035CB SCT080 SCT150
     FM010100 VRB06KT P6SM SCT060 SCT250=



000
FTUS44 KLIX 300532
TAFMSY
TAF
KMSY 300532Z 3006/0106 24007KT P6SM FEW040 BKN250
     FM301500 24012G19KT P6SM SCT035 SCT160
     FM301800 24014KT P6SM VCTS SCT050CB SCT120 BKN250
     FM010100 23012KT P6SM SCT060 SCT250=



000
FTUS44 KLIX 300532
TAFNEW
TAF
KNEW 300532Z 3006/0106 24012KT P6SM FEW060 SCT250
     FM301400 24012G19KT P6SM SCT035 SCT160
     FM301730 24014KT P6SM VCTS SCT050CB SCT120 BKN250
     FM010100 23012KT P6SM SCT060 SCT250=



000
FTUS44 KLIX 300532
TAFNEW
TAF
KNEW 300532Z 3006/0106 24012KT P6SM FEW060 SCT250
     FM301400 24012G19KT P6SM SCT035 SCT160
     FM301730 24014KT P6SM VCTS SCT050CB SCT120 BKN250
     FM010100 23012KT P6SM SCT060 SCT250=



000
FTUS44 KLIX 300324 AAB
TAFBTR
TAF AMD
KBTR 300324Z 3003/3024 21009KT P6SM FEW040 SCT250
     FM300410 34015G22KT 3SM TSRA SCT020CB BKN030 BKN040
     FM300500 27006KT P6SM VCSH FEW025 SCT040 SCT250
     FM300700 VRB03KT P6SM FEW040 SCT250
     FM301400 24010KT P6SM SCT150=



000
FTUS44 KLIX 300013 AAA
TAFBTR
TAF AMD
KBTR 300013Z 3000/3024 21009KT P6SM FEW040 SCT250
      TEMPO 3000/3002 5SM -SHRA BKN035
     FM301300 24010KT P6SM SCT150=



000
FTUS44 KLIX 292334
TAFNEW
TAF
KNEW 292334Z 3000/3024 VRB05KT P6SM SCT060 SCT200
     FM301300 25013KT P6SM SCT035=



000
FTUS44 KLIX 292334
TAFMCB
TAF
KMCB 292334Z 3000/3024 22007KT P6SM VCTS SCT040CB SCT100 BKN250
     FM300200 24003KT P6SM SCT250
     FM301300 27011KT P6SM BKN150=



000
FTUS44 KLIX 292334
TAFMSY
TAF
KMSY 292334Z 3000/3024 VRB05KT P6SM SCT040 BKN150
     FM301300 24011KT P6SM SCT035 BKN250=



000
FTUS44 KLIX 292334
TAFGPT
TAF
KGPT 292334Z 3000/3024 20003KT P6SM SCT250
     FM301300 27011KT P6SM BKN020=



000
FTUS44 KLIX 292334
TAFNEW
TAF
KNEW 292334Z 3000/3024 VRB05KT P6SM SCT060 SCT200
     FM301300 25013KT P6SM SCT035=



000
FTUS44 KLIX 292334
TAFMSY
TAF
KMSY 292334Z 3000/3024 VRB05KT P6SM SCT040 BKN150
     FM301300 24011KT P6SM SCT035 BKN250=



000
FTUS44 KLIX 292334
TAFGPT
TAF
KGPT 292334Z 3000/3024 20003KT P6SM SCT250
     FM301300 27011KT P6SM BKN020=



000
FTUS44 KLIX 292334
TAFMCB
TAF
KMCB 292334Z 3000/3024 22007KT P6SM VCTS SCT040CB SCT100 BKN250
     FM300200 24003KT P6SM SCT250
     FM301300 27011KT P6SM BKN150=



000
FTUS44 KLIX 292334
TAFNEW
TAF
KNEW 292334Z 3000/3024 VRB05KT P6SM SCT060 SCT200
     FM301300 25013KT P6SM SCT035=



000
FTUS44 KLIX 292334
TAFNEW
TAF
KNEW 292334Z 3000/3024 VRB05KT P6SM SCT060 SCT200
     FM301300 25013KT P6SM SCT035=



000
FTUS44 KLIX 292334
TAFBTR
TAF
KBTR 292334Z 3000/3024 21009KT P6SM FEW040 SCT250
     FM301300 24010KT P6SM SCT150=



000
FTUS44 KLIX 292334
TAFBTR
TAF
KBTR 292334Z 3000/3024 21009KT P6SM FEW040 SCT250
     FM301300 24010KT P6SM SCT150=



000
FTUS44 KLIX 291740
TAFBTR
TAF
KBTR 291740Z 2918/3018 26008KT P6SM SCT022 BKN040
      TEMPO 2918/2922 VRB18KT 1SM TSRA BR BKN022CB
     FM292200 23005KT P6SM VCTS SCT035CB BKN250
     FM300000 22005KT P6SM BKN250
     FM301300 24010KT P6SM BKN150=



000
FTUS44 KLIX 291740
TAFNEW
TAF
KNEW 291740Z 2918/3018 29010KT P6SM SCT035
      TEMPO 2919/2923 VRB18KT 1SM TSRA BR BKN022CB
     FM301000 26011KT P6SM BKN200
     FM301300 25013KT P6SM SCT035=



000
FTUS44 KLIX 291740
TAFMSY
TAF
KMSY 291740Z 2918/3018 27012KT P6SM SCT035 BKN250
      TEMPO 2919/2923 VRB14G28KT 1SM TSRA BKN025CB
     FM300000 23008KT P6SM BKN250
     FM301300 24011KT P6SM SCT035 BKN250=



000
FTUS44 KLIX 291740
TAFGPT
TAF
KGPT 291740Z 2918/3018 29006KT P6SM FEW030
      TEMPO 2918/2922 VRB15KT 2SM TSRA BR BKN030CB
     FM292200 25010KT P6SM VCTS SCT030CB BKN150
     FM300000 26006KT P6SM BKN200
     FM301300 27011KT P6SM BKN020=



000
FTUS44 KLIX 291740
TAFNEW
TAF
KNEW 291740Z 2918/3018 29010KT P6SM SCT035
      TEMPO 2919/2923 VRB18KT 1SM TSRA BR BKN022CB
     FM301000 26011KT P6SM BKN200
     FM301300 25013KT P6SM SCT035=



000
FTUS44 KLIX 291740
TAFMCB
TAF
KMCB 291740Z 2918/3018 23004KT P6SM FEW022 BKN035 BKN070
      TEMPO 2918/2922 VRB18KT 1SM TSRA BR BKN022CB
     FM300000 26007KT P6SM BKN250
     FM300200 24003KT P6SM BKN200
     FM301300 27011KT P6SM BKN150=



000
FTUS44 KLIX 291740
TAFGPT
TAF
KGPT 291740Z 2918/3018 29006KT P6SM FEW030
      TEMPO 2918/2922 VRB15KT 2SM TSRA BR BKN030CB
     FM292200 25010KT P6SM VCTS SCT030CB BKN150
     FM300000 26006KT P6SM BKN200
     FM301300 27011KT P6SM BKN020=



000
FTUS44 KLIX 291740
TAFMSY
TAF
KMSY 291740Z 2918/3018 27012KT P6SM SCT035 BKN250
      TEMPO 2919/2923 VRB14G28KT 1SM TSRA BKN025CB
     FM300000 23008KT P6SM BKN250
     FM301300 24011KT P6SM SCT035 BKN250=



000
FTUS44 KLIX 291740
TAFBTR
TAF
KBTR 291740Z 2918/3018 26008KT P6SM SCT022 BKN040
      TEMPO 2918/2922 VRB18KT 1SM TSRA BR BKN022CB
     FM292200 23005KT P6SM VCTS SCT035CB BKN250
     FM300000 22005KT P6SM BKN250
     FM301300 24010KT P6SM BKN150=



000
FTUS44 KLIX 291740
TAFNEW
TAF
KNEW 291740Z 2918/3018 29010KT P6SM SCT035
      TEMPO 2919/2923 VRB18KT 1SM TSRA BR BKN022CB
     FM301000 26011KT P6SM BKN200
     FM301300 25013KT P6SM SCT035=



000
FTUS44 KLIX 291740
TAFMCB
TAF
KMCB 291740Z 2918/3018 23004KT P6SM FEW022 BKN035 BKN070
      TEMPO 2918/2922 VRB18KT 1SM TSRA BR BKN022CB
     FM300000 26007KT P6SM BKN250
     FM300200 24003KT P6SM BKN200
     FM301300 27011KT P6SM BKN150=



000
FTUS44 KLIX 291607 AAA
TAFBTR
TAF AMD
KBTR 291607Z 2916/3012 25010KT P6SM BKN022 BKN030
      TEMPO 2916/2918 VRB15KT 1SM TSRA BR BKN022CB
     FM300000 22005KT P6SM BKN250=



000
FTUS44 KLIX 291607 AAA
TAFBTR
TAF AMD
KBTR 291607Z 2916/3012 25010KT P6SM BKN022 BKN030
      TEMPO 2916/2918 VRB15KT 1SM TSRA BR BKN022CB
     FM300000 22005KT P6SM BKN250=



000
FTUS44 KLIX 291321 AAA
TAFMCB
TAF AMD
KMCB 291321Z 2913/3012 VRB03KT P6SM FEW005
     FM291330 26006KT P6SM SCT010
     FM291600 26008KT P6SM VCTS SCT030CB BKN150
     FM300000 26007KT P6SM BKN250=



000
FTUS44 KLIX 291140
TAFMSY
TAF
KMSY 291140Z 2912/3012 26005KT P6SM SCT025 BKN250
     FM291600 26009KT P6SM VCTS SCT030CB BKN120
     FM300000 25007KT P6SM BKN250=



000
FTUS44 KLIX 291140
TAFGPT
TAF
KGPT 291140Z 2912/3012 VRB03KT P6SM VCTS BKN250CB
     FM291500 28008KT P6SM VCSH SCT025 SCT250
     FM292000 25010KT P6SM VCTS SCT030CB BKN150
     FM300000 26006KT P6SM BKN200=



000
FTUS44 KLIX 291140
TAFBTR
TAF
KBTR 291140Z 2912/3012 24004KT P6SM FEW025 BKN090
     FM291600 25007KT P6SM VCTS SCT030CB BKN140
     FM300000 22005KT P6SM BKN250=



000
FTUS44 KLIX 291140
TAFMCB
TAF
KMCB 291140Z 2912/3012 26004KT 2SM BR BKN002
     FM291330 26006KT P6SM SCT010
     FM291600 26008KT P6SM VCTS SCT030CB BKN150
     FM300000 26007KT P6SM BKN250=



000
FTUS44 KLIX 291140
TAFNEW
TAF
KNEW 291140Z 2912/3012 27009KT P6SM SCT025 BKN250
     FM291600 26009KT P6SM VCTS SCT030CB BKN120
     FM300000 26011KT P6SM BKN200=



000
FTUS44 KLIX 291140
TAFNEW
TAF
KNEW 291140Z 2912/3012 27009KT P6SM SCT025 BKN250
     FM291600 26009KT P6SM VCTS SCT030CB BKN120
     FM300000 26011KT P6SM BKN200=



000
FTUS44 KLIX 290539
TAFNEW
TAF
KNEW 290539Z 2906/3006 25007KT P6SM FEW050 SCT250
     FM291600 27009KT P6SM SCT030 SCT200 PROB30 2917/2923 3SM TSRA
      BKN035CB=



000
FTUS44 KLIX 290539
TAFGPT
TAF
KGPT 290539Z 2906/3006 VRB03KT P6SM SCT250
     FM291700 25009KT P6SM SCT040 SCT250 PROB30 2917/2923 3SM TSRA
      BKN035CB=



000
FTUS44 KLIX 290539
TAFMCB
TAF
KMCB 290539Z 2906/3006 00000KT 6SM BR FEW003 FEW030 SCT060
      TEMPO 2910/2913 4SM BR BKN003
     FM291700 27006KT P6SM SCT060 SCT250=



000
FTUS44 KLIX 290539
TAFMSY
TAF
KMSY 290539Z 2906/3006 24005KT P6SM FEW050 SCT250
     FM291600 27009KT P6SM SCT030 SCT200 PROB30 2917/2923 3SM TSRA
      BKN035CB=



000
FTUS44 KLIX 290539
TAFBTR
TAF
KBTR 290539Z 2906/3006 00000KT P6SM FEW030 SCT060
      TEMPO 2910/2913 5SM BR BKN015
     FM291630 26006KT P6SM SCT035 SCT250 PROB30 2918/2924 3SM TSRA
      BKN035CB=



    US Dept of Commerce
    National Oceanic and Atmospheric Administration
    National Weather Service
    1325 East West Highway
    Silver Spring, MD 20910
    Page Author: NWS Internet Services Team
Disclaimer
Information Quality
Credits
Glossary
Privacy Policy
Freedom of Information Act (FOIA)
About Us
Career Opportunities